sensor_id;sensor_type;location;lat;lon;timestamp;temperature;humidity
57636;DHT22;43465;50.728;4.160;2023-08-30T00:00:18;16.10;99.90
57636;DHT22;43465;50.728;4.160;2023-08-30T00:02:44;16.10;99.90
57636;DHT22;43465;50.728;4.160;2023-08-30T00:05:10;16.10;99.90
57636;DHT22;43465;50.728;4.160;2023-08-30T00:07:36;16.10;99.90
57636;DHT22;43465;50.728;4.160;2023-08-30T00:10:02;16.00;99.90
57636;DHT22;43465;50.728;4.160;2023-08-30T00:12:29;16.00;99.90
57636;DHT22;43465;50.728;4.160;2023-08-30T00:14:55;15.90;99.90
57636;DHT22;43465;50.728;4.160;2023-08-30T00:17:22;15.90;99.90
57636;DHT22;43465;50.728;4.160;2023-08-30T00:19:47;15.80;99.90
57636;DHT22;43465;50.728;4.160;2023-08-30T00:22:14;15.80;99.90
57636;DHT22;43465;50.728;4.160;2023-08-30T00:24:39;15.80;99.90
57636;DHT22;43465;50.728;4.160;2023-08-30T00:27:05;15.70;99.90
57636;DHT22;43465;50.728;4.160;2023-08-30T00:29:32;15.70;99.90
57636;DHT22;43465;50.728;4.160;2023-08-30T00:31:57;15.70;99.90
57636;DHT22;43465;50.728;4.160;2023-08-30T00:34:23;15.70;99.90
57636;DHT22;43465;50.728;4.160;2023-08-30T00:36:49;15.70;99.90
57636;DHT22;43465;50.728;4.160;2023-08-30T00:39:15;15.70;99.90
57636;DHT22;43465;50.728;4.160;2023-08-30T00:41:40;15.70;99.90
57636;DHT22;43465;50.728;4.160;2023-08-30T00:44:06;15.70;99.90
57636;DHT22;43465;50.728;4.160;2023-08-30T00:46:33;15.70;99.90
57636;DHT22;43465;50.728;4.160;2023-08-30T00:48:59;15.70;99.90
57636;DHT22;43465;50.728;4.160;2023-08-30T00:51:26;15.70;99.90
57636;DHT22;43465;50.728;4.160;2023-08-30T00:53:54;15.70;99.90
57636;DHT22;43465;50.728;4.160;2023-08-30T00:56:20;15.60;99.90
57636;DHT22;43465;50.728;4.160;2023-08-30T00:58:47;15.60;99.90
57636;DHT22;43465;50.728;4.160;2023-08-30T01:01:13;15.60;99.90
57636;DHT22;43465;50.728;4.160;2023-08-30T01:03:39;15.50;99.90
57636;DHT22;43465;50.728;4.160;2023-08-30T01:06:05;15.50;99.90
57636;DHT22;43465;50.728;4.160;2023-08-30T01:08:30;15.40;99.90
57636;DHT22;43465;50.728;4.160;2023-08-30T01:11:11;15.40;99.90
57636;DHT22;43465;50.728;4.160;2023-08-30T01:13:42;15.40;99.90
57636;DHT22;43465;50.728;4.160;2023-08-30T01:16:10;15.40;99.90
57636;DHT22;43465;50.728;4.160;2023-08-30T01:18:37;15.40;99.90
57636;DHT22;43465;50.728;4.160;2023-08-30T01:21:05;15.40;99.90
57636;DHT22;43465;50.728;4.160;2023-08-30T01:23:47;15.40;99.90
57636;DHT22;43465;50.728;4.160;2023-08-30T01:26:42;15.40;99.90
57636;DHT22;43465;50.728;4.160;2023-08-30T01:29:11;15.40;99.90
57636;DHT22;43465;50.728;4.160;2023-08-30T01:31:39;15.40;99.90
57636;DHT22;43465;50.728;4.160;2023-08-30T01:34:06;15.40;99.90
57636;DHT22;43465;50.728;4.160;2023-08-30T01:36:32;15.40;99.90
57636;DHT22;43465;50.728;4.160;2023-08-30T01:39:01;15.40;99.90
57636;DHT22;43465;50.728;4.160;2023-08-30T01:41:28;15.30;99.90
57636;DHT22;43465;50.728;4.160;2023-08-30T01:43:55;15.30;99.90
57636;DHT22;43465;50.728;4.160;2023-08-30T01:46:22;15.40;99.90
57636;DHT22;43465;50.728;4.160;2023-08-30T01:48:49;15.40;99.90
57636;DHT22;43465;50.728;4.160;2023-08-30T01:51:16;15.30;99.90
57636;DHT22;43465;50.728;4.160;2023-08-30T01:53:44;15.40;99.90
57636;DHT22;43465;50.728;4.160;2023-08-30T01:56:11;15.30;99.90
57636;DHT22;43465;50.728;4.160;2023-08-30T01:58:37;15.30;99.90
57636;DHT22;43465;50.728;4.160;2023-08-30T02:01:02;15.30;99.90
57636;DHT22;43465;50.728;4.160;2023-08-30T02:03:28;15.30;99.90
57636;DHT22;43465;50.728;4.160;2023-08-30T02:06:07;15.30;99.90
57636;DHT22;43465;50.728;4.160;2023-08-30T02:09:04;15.40;99.90
57636;DHT22;43465;50.728;4.160;2023-08-30T02:11:34;15.50;99.90
57636;DHT22;43465;50.728;4.160;2023-08-30T02:14:01;15.50;99.90
57636;DHT22;43465;50.728;4.160;2023-08-30T02:16:30;15.60;99.90
57636;DHT22;43465;50.728;4.160;2023-08-30T02:18:57;15.60;99.90
57636;DHT22;43465;50.728;4.160;2023-08-30T02:21:22;15.70;99.90
57636;DHT22;43465;50.728;4.160;2023-08-30T02:23:51;15.80;99.90
57636;DHT22;43465;50.728;4.160;2023-08-30T02:26:20;15.80;99.90
57636;DHT22;43465;50.728;4.160;2023-08-30T02:28:46;15.80;99.90
57636;DHT22;43465;50.728;4.160;2023-08-30T02:31:12;15.80;99.90
57636;DHT22;43465;50.728;4.160;2023-08-30T02:33:37;15.80;99.90
57636;DHT22;43465;50.728;4.160;2023-08-30T02:36:04;15.90;99.90
57636;DHT22;43465;50.728;4.160;2023-08-30T02:38:29;15.90;99.90
57636;DHT22;43465;50.728;4.160;2023-08-30T02:40:55;15.90;99.90
57636;DHT22;43465;50.728;4.160;2023-08-30T02:43:21;15.90;99.90
57636;DHT22;43465;50.728;4.160;2023-08-30T02:45:47;15.90;99.90
57636;DHT22;43465;50.728;4.160;2023-08-30T02:48:14;15.90;99.90
57636;DHT22;43465;50.728;4.160;2023-08-30T02:50:39;16.00;99.90
57636;DHT22;43465;50.728;4.160;2023-08-30T02:53:05;16.00;99.90
57636;DHT22;43465;50.728;4.160;2023-08-30T02:55:36;16.10;99.90
57636;DHT22;43465;50.728;4.160;2023-08-30T02:58:02;16.10;99.90
57636;DHT22;43465;50.728;4.160;2023-08-30T03:00:28;16.10;99.90
57636;DHT22;43465;50.728;4.160;2023-08-30T03:02:54;16.10;99.90
57636;DHT22;43465;50.728;4.160;2023-08-30T03:05:19;16.10;99.90
57636;DHT22;43465;50.728;4.160;2023-08-30T03:07:45;16.20;99.90
57636;DHT22;43465;50.728;4.160;2023-08-30T03:10:11;16.20;99.90
57636;DHT22;43465;50.728;4.160;2023-08-30T03:12:37;16.20;99.90
57636;DHT22;43465;50.728;4.160;2023-08-30T03:15:03;16.20;99.90
57636;DHT22;43465;50.728;4.160;2023-08-30T03:17:30;16.20;99.90
57636;DHT22;43465;50.728;4.160;2023-08-30T03:19:55;16.20;99.90
57636;DHT22;43465;50.728;4.160;2023-08-30T03:22:21;16.20;99.90
57636;DHT22;43465;50.728;4.160;2023-08-30T03:24:47;16.20;99.90
57636;DHT22;43465;50.728;4.160;2023-08-30T03:27:12;16.20;99.90
57636;DHT22;43465;50.728;4.160;2023-08-30T03:29:38;16.20;99.90
57636;DHT22;43465;50.728;4.160;2023-08-30T03:32:04;16.20;99.90
57636;DHT22;43465;50.728;4.160;2023-08-30T03:34:30;16.30;99.90
57636;DHT22;43465;50.728;4.160;2023-08-30T03:36:55;16.30;99.90
57636;DHT22;43465;50.728;4.160;2023-08-30T03:39:21;16.30;99.90
57636;DHT22;43465;50.728;4.160;2023-08-30T03:41:47;16.30;99.90
57636;DHT22;43465;50.728;4.160;2023-08-30T03:44:13;16.30;99.90
57636;DHT22;43465;50.728;4.160;2023-08-30T03:46:39;16.30;99.90
57636;DHT22;43465;50.728;4.160;2023-08-30T03:49:04;16.30;99.90
57636;DHT22;43465;50.728;4.160;2023-08-30T03:51:30;16.30;99.90
57636;DHT22;43465;50.728;4.160;2023-08-30T03:53:56;16.30;99.90
57636;DHT22;43465;50.728;4.160;2023-08-30T03:56:24;16.30;99.90
57636;DHT22;43465;50.728;4.160;2023-08-30T03:58:49;16.30;99.90
57636;DHT22;43465;50.728;4.160;2023-08-30T04:01:15;16.20;99.90
57636;DHT22;43465;50.728;4.160;2023-08-30T04:03:41;16.20;99.90
57636;DHT22;43465;50.728;4.160;2023-08-30T04:06:06;16.20;99.90
57636;DHT22;43465;50.728;4.160;2023-08-30T04:08:32;16.20;99.90
57636;DHT22;43465;50.728;4.160;2023-08-30T04:10:58;16.20;99.90
57636;DHT22;43465;50.728;4.160;2023-08-30T04:13:24;16.10;99.90
57636;DHT22;43465;50.728;4.160;2023-08-30T04:15:49;16.10;99.90
57636;DHT22;43465;50.728;4.160;2023-08-30T04:18:16;16.10;99.90
57636;DHT22;43465;50.728;4.160;2023-08-30T04:20:46;16.00;99.90
57636;DHT22;43465;50.728;4.160;2023-08-30T04:23:12;16.00;99.90
57636;DHT22;43465;50.728;4.160;2023-08-30T04:25:38;16.00;99.90
57636;DHT22;43465;50.728;4.160;2023-08-30T04:28:04;16.00;99.90
57636;DHT22;43465;50.728;4.160;2023-08-30T04:30:30;15.90;99.90
57636;DHT22;43465;50.728;4.160;2023-08-30T04:32:56;15.90;99.90
57636;DHT22;43465;50.728;4.160;2023-08-30T04:35:22;15.90;99.90
57636;DHT22;43465;50.728;4.160;2023-08-30T04:37:47;15.90;99.90
57636;DHT22;43465;50.728;4.160;2023-08-30T04:40:13;15.90;99.90
57636;DHT22;43465;50.728;4.160;2023-08-30T04:42:39;15.90;99.90
57636;DHT22;43465;50.728;4.160;2023-08-30T04:45:06;15.90;99.90
57636;DHT22;43465;50.728;4.160;2023-08-30T04:47:32;15.90;99.90
57636;DHT22;43465;50.728;4.160;2023-08-30T04:49:58;15.90;99.90
57636;DHT22;43465;50.728;4.160;2023-08-30T04:52:24;15.90;99.90
57636;DHT22;43465;50.728;4.160;2023-08-30T04:54:50;15.90;99.90
57636;DHT22;43465;50.728;4.160;2023-08-30T04:57:16;15.90;99.90
57636;DHT22;43465;50.728;4.160;2023-08-30T04:59:43;15.90;99.90
57636;DHT22;43465;50.728;4.160;2023-08-30T05:02:09;15.80;99.90
57636;DHT22;43465;50.728;4.160;2023-08-30T05:04:35;15.80;99.90
57636;DHT22;43465;50.728;4.160;2023-08-30T05:07:01;15.80;99.90
57636;DHT22;43465;50.728;4.160;2023-08-30T05:09:28;15.80;99.90
57636;DHT22;43465;50.728;4.160;2023-08-30T05:11:54;15.80;99.90
57636;DHT22;43465;50.728;4.160;2023-08-30T05:14:20;15.70;99.90
57636;DHT22;43465;50.728;4.160;2023-08-30T05:16:46;15.80;99.90
57636;DHT22;43465;50.728;4.160;2023-08-30T05:19:12;15.70;99.90
57636;DHT22;43465;50.728;4.160;2023-08-30T05:21:37;15.70;99.90
57636;DHT22;43465;50.728;4.160;2023-08-30T05:24:03;15.70;99.90
57636;DHT22;43465;50.728;4.160;2023-08-30T05:26:31;15.70;99.90
57636;DHT22;43465;50.728;4.160;2023-08-30T05:28:56;15.70;99.90
57636;DHT22;43465;50.728;4.160;2023-08-30T05:31:22;15.70;99.90
57636;DHT22;43465;50.728;4.160;2023-08-30T05:33:48;15.70;99.90
57636;DHT22;43465;50.728;4.160;2023-08-30T05:36:13;15.70;99.90
57636;DHT22;43465;50.728;4.160;2023-08-30T05:38:39;15.70;99.90
57636;DHT22;43465;50.728;4.160;2023-08-30T05:41:04;15.80;99.90
57636;DHT22;43465;50.728;4.160;2023-08-30T05:43:31;15.80;99.90
57636;DHT22;43465;50.728;4.160;2023-08-30T05:45:57;15.80;99.90
57636;DHT22;43465;50.728;4.160;2023-08-30T05:48:27;15.80;99.90
57636;DHT22;43465;50.728;4.160;2023-08-30T05:50:53;15.80;99.90
57636;DHT22;43465;50.728;4.160;2023-08-30T05:53:18;15.80;99.90
57636;DHT22;43465;50.728;4.160;2023-08-30T05:55:44;15.80;99.90
57636;DHT22;43465;50.728;4.160;2023-08-30T05:58:10;15.90;99.90
57636;DHT22;43465;50.728;4.160;2023-08-30T06:00:35;15.90;99.90
57636;DHT22;43465;50.728;4.160;2023-08-30T06:03:01;15.90;99.90
57636;DHT22;43465;50.728;4.160;2023-08-30T06:05:28;16.00;99.90
57636;DHT22;43465;50.728;4.160;2023-08-30T06:07:53;16.00;99.90
57636;DHT22;43465;50.728;4.160;2023-08-30T06:10:19;16.00;99.90
57636;DHT22;43465;50.728;4.160;2023-08-30T06:12:45;16.10;99.90
57636;DHT22;43465;50.728;4.160;2023-08-30T06:15:11;16.10;99.90
57636;DHT22;43465;50.728;4.160;2023-08-30T06:17:36;16.10;99.90
57636;DHT22;43465;50.728;4.160;2023-08-30T06:20:02;16.10;99.90
57636;DHT22;43465;50.728;4.160;2023-08-30T06:22:28;16.10;99.90
57636;DHT22;43465;50.728;4.160;2023-08-30T06:24:54;16.10;99.90
57636;DHT22;43465;50.728;4.160;2023-08-30T06:27:19;16.00;99.90
57636;DHT22;43465;50.728;4.160;2023-08-30T06:29:46;16.00;99.90
57636;DHT22;43465;50.728;4.160;2023-08-30T06:32:11;16.00;99.90
57636;DHT22;43465;50.728;4.160;2023-08-30T06:34:37;16.00;99.90
57636;DHT22;43465;50.728;4.160;2023-08-30T06:37:02;16.00;99.90
57636;DHT22;43465;50.728;4.160;2023-08-30T06:39:35;16.00;99.90
57636;DHT22;43465;50.728;4.160;2023-08-30T06:42:02;16.00;99.90
57636;DHT22;43465;50.728;4.160;2023-08-30T06:44:28;16.00;99.90
57636;DHT22;43465;50.728;4.160;2023-08-30T06:46:58;16.00;99.90
57636;DHT22;43465;50.728;4.160;2023-08-30T06:49:24;16.00;99.90
57636;DHT22;43465;50.728;4.160;2023-08-30T06:51:50;16.00;99.90
57636;DHT22;43465;50.728;4.160;2023-08-30T06:54:16;16.00;99.90
57636;DHT22;43465;50.728;4.160;2023-08-30T06:59:07;16.10;99.90
57636;DHT22;43465;50.728;4.160;2023-08-30T07:01:33;16.10;99.90
57636;DHT22;43465;50.728;4.160;2023-08-30T07:03:58;16.20;99.90
57636;DHT22;43465;50.728;4.160;2023-08-30T07:06:24;16.20;99.90
57636;DHT22;43465;50.728;4.160;2023-08-30T07:08:50;16.20;99.90
57636;DHT22;43465;50.728;4.160;2023-08-30T07:11:15;16.30;99.90
57636;DHT22;43465;50.728;4.160;2023-08-30T07:13:41;16.30;99.90
57636;DHT22;43465;50.728;4.160;2023-08-30T07:16:08;16.30;99.90
57636;DHT22;43465;50.728;4.160;2023-08-30T07:18:34;16.30;99.90
57636;DHT22;43465;50.728;4.160;2023-08-30T07:21:00;16.30;99.90
57636;DHT22;43465;50.728;4.160;2023-08-30T07:23:25;16.30;99.90
57636;DHT22;43465;50.728;4.160;2023-08-30T07:25:51;16.40;99.90
57636;DHT22;43465;50.728;4.160;2023-08-30T07:28:17;16.40;99.90
57636;DHT22;43465;50.728;4.160;2023-08-30T07:30:43;16.40;99.90
57636;DHT22;43465;50.728;4.160;2023-08-30T07:33:09;16.40;99.90
57636;DHT22;43465;50.728;4.160;2023-08-30T07:35:34;16.40;99.90
57636;DHT22;43465;50.728;4.160;2023-08-30T07:38:00;16.40;99.90
57636;DHT22;43465;50.728;4.160;2023-08-30T07:40:26;16.40;99.90
57636;DHT22;43465;50.728;4.160;2023-08-30T07:42:53;16.40;99.90
57636;DHT22;43465;50.728;4.160;2023-08-30T07:45:19;16.50;99.90
57636;DHT22;43465;50.728;4.160;2023-08-30T07:47:44;16.50;99.90
57636;DHT22;43465;50.728;4.160;2023-08-30T07:50:10;16.40;99.90
57636;DHT22;43465;50.728;4.160;2023-08-30T07:52:36;16.50;99.90
57636;DHT22;43465;50.728;4.160;2023-08-30T07:55:01;16.50;99.90
57636;DHT22;43465;50.728;4.160;2023-08-30T07:57:27;16.60;99.90
57636;DHT22;43465;50.728;4.160;2023-08-30T07:59:53;16.60;99.90
57636;DHT22;43465;50.728;4.160;2023-08-30T08:02:19;16.60;99.90
57636;DHT22;43465;50.728;4.160;2023-08-30T08:04:44;16.60;99.90
57636;DHT22;43465;50.728;4.160;2023-08-30T08:07:10;16.60;99.90
57636;DHT22;43465;50.728;4.160;2023-08-30T08:09:36;16.60;99.90
57636;DHT22;43465;50.728;4.160;2023-08-30T08:12:03;16.60;99.90
57636;DHT22;43465;50.728;4.160;2023-08-30T08:14:29;16.70;99.90
57636;DHT22;43465;50.728;4.160;2023-08-30T08:16:54;16.80;99.90
57636;DHT22;43465;50.728;4.160;2023-08-30T08:19:20;16.80;99.90
57636;DHT22;43465;50.728;4.160;2023-08-30T08:21:47;16.80;99.90
57636;DHT22;43465;50.728;4.160;2023-08-30T08:24:13;16.90;99.90
57636;DHT22;43465;50.728;4.160;2023-08-30T08:26:39;16.90;99.90
57636;DHT22;43465;50.728;4.160;2023-08-30T08:29:04;17.00;99.90
57636;DHT22;43465;50.728;4.160;2023-08-30T08:31:30;17.00;99.90
57636;DHT22;43465;50.728;4.160;2023-08-30T08:34:10;17.00;99.90
57636;DHT22;43465;50.728;4.160;2023-08-30T08:36:37;17.00;99.90
57636;DHT22;43465;50.728;4.160;2023-08-30T08:39:03;17.10;99.90
57636;DHT22;43465;50.728;4.160;2023-08-30T08:41:44;17.10;99.90
57636;DHT22;43465;50.728;4.160;2023-08-30T08:44:11;17.10;99.90
57636;DHT22;43465;50.728;4.160;2023-08-30T08:46:38;17.20;99.90
57636;DHT22;43465;50.728;4.160;2023-08-30T08:49:15;17.30;99.90
57636;DHT22;43465;50.728;4.160;2023-08-30T08:51:42;17.30;99.90
57636;DHT22;43465;50.728;4.160;2023-08-30T08:54:08;17.40;99.90
57636;DHT22;43465;50.728;4.160;2023-08-30T08:56:35;17.50;99.90
57636;DHT22;43465;50.728;4.160;2023-08-30T08:59:02;17.50;99.90
57636;DHT22;43465;50.728;4.160;2023-08-30T09:01:28;17.60;99.90
57636;DHT22;43465;50.728;4.160;2023-08-30T09:03:54;17.70;99.90
57636;DHT22;43465;50.728;4.160;2023-08-30T09:06:21;17.80;99.90
57636;DHT22;43465;50.728;4.160;2023-08-30T09:08:46;17.80;99.90
57636;DHT22;43465;50.728;4.160;2023-08-30T09:11:12;17.80;99.90
57636;DHT22;43465;50.728;4.160;2023-08-30T09:13:38;17.80;99.90
57636;DHT22;43465;50.728;4.160;2023-08-30T09:16:14;17.80;99.90
57636;DHT22;43465;50.728;4.160;2023-08-30T09:18:43;17.80;99.90
57636;DHT22;43465;50.728;4.160;2023-08-30T09:21:10;17.80;99.90
57636;DHT22;43465;50.728;4.160;2023-08-30T09:23:37;17.90;99.90
57636;DHT22;43465;50.728;4.160;2023-08-30T09:26:04;17.90;99.90
57636;DHT22;43465;50.728;4.160;2023-08-30T09:28:30;18.00;99.90
57636;DHT22;43465;50.728;4.160;2023-08-30T09:30:58;18.10;99.90
57636;DHT22;43465;50.728;4.160;2023-08-30T09:33:31;18.20;99.90
57636;DHT22;43465;50.728;4.160;2023-08-30T09:36:00;18.30;99.90
57636;DHT22;43465;50.728;4.160;2023-08-30T09:38:26;18.40;99.90
57636;DHT22;43465;50.728;4.160;2023-08-30T09:40:52;18.40;99.90
57636;DHT22;43465;50.728;4.160;2023-08-30T09:43:19;18.40;99.90
57636;DHT22;43465;50.728;4.160;2023-08-30T09:45:47;18.50;99.90
57636;DHT22;43465;50.728;4.160;2023-08-30T09:48:13;18.50;99.90
57636;DHT22;43465;50.728;4.160;2023-08-30T09:50:42;18.50;99.90
57636;DHT22;43465;50.728;4.160;2023-08-30T09:53:09;18.50;99.90
57636;DHT22;43465;50.728;4.160;2023-08-30T09:55:36;18.50;99.90
57636;DHT22;43465;50.728;4.160;2023-08-30T09:58:03;18.50;99.90
57636;DHT22;43465;50.728;4.160;2023-08-30T10:00:33;18.40;99.90
57636;DHT22;43465;50.728;4.160;2023-08-30T10:03:02;18.40;99.90
57636;DHT22;43465;50.728;4.160;2023-08-30T10:05:29;18.50;99.90
57636;DHT22;43465;50.728;4.160;2023-08-30T10:07:56;18.50;99.90
57636;DHT22;43465;50.728;4.160;2023-08-30T10:10:23;18.60;99.90
57636;DHT22;43465;50.728;4.160;2023-08-30T10:12:49;18.80;99.90
57636;DHT22;43465;50.728;4.160;2023-08-30T10:15:15;18.80;99.90
57636;DHT22;43465;50.728;4.160;2023-08-30T10:17:44;18.90;99.90
57636;DHT22;43465;50.728;4.160;2023-08-30T10:20:10;19.00;99.90
57636;DHT22;43465;50.728;4.160;2023-08-30T10:22:38;19.20;99.90
57636;DHT22;43465;50.728;4.160;2023-08-30T10:25:18;19.40;99.90
57636;DHT22;43465;50.728;4.160;2023-08-30T10:27:47;19.60;99.90
57636;DHT22;43465;50.728;4.160;2023-08-30T10:30:15;19.70;99.90
57636;DHT22;43465;50.728;4.160;2023-08-30T10:32:42;19.80;99.90
57636;DHT22;43465;50.728;4.160;2023-08-30T10:35:18;19.90;99.90
57636;DHT22;43465;50.728;4.160;2023-08-30T10:37:54;19.90;99.90
57636;DHT22;43465;50.728;4.160;2023-08-30T10:40:21;19.90;99.90
57636;DHT22;43465;50.728;4.160;2023-08-30T10:43:01;19.90;99.90
57636;DHT22;43465;50.728;4.160;2023-08-30T10:45:27;19.90;99.90
57636;DHT22;43465;50.728;4.160;2023-08-30T10:47:57;20.00;99.90
57636;DHT22;43465;50.728;4.160;2023-08-30T10:50:32;20.00;99.90
57636;DHT22;43465;50.728;4.160;2023-08-30T10:52:58;20.00;99.90
57636;DHT22;43465;50.728;4.160;2023-08-30T10:55:24;20.00;99.90
57636;DHT22;43465;50.728;4.160;2023-08-30T10:58:02;19.90;99.90
57636;DHT22;43465;50.728;4.160;2023-08-30T11:00:31;20.00;99.90
57636;DHT22;43465;50.728;4.160;2023-08-30T11:02:57;19.90;99.90
57636;DHT22;43465;50.728;4.160;2023-08-30T11:05:25;19.90;99.90
57636;DHT22;43465;50.728;4.160;2023-08-30T11:07:52;19.90;99.90
57636;DHT22;43465;50.728;4.160;2023-08-30T11:10:18;19.80;99.90
57636;DHT22;43465;50.728;4.160;2023-08-30T11:12:46;19.90;99.90
57636;DHT22;43465;50.728;4.160;2023-08-30T11:15:13;19.90;99.90
57636;DHT22;43465;50.728;4.160;2023-08-30T11:17:39;20.00;99.90
57636;DHT22;43465;50.728;4.160;2023-08-30T11:20:13;19.90;99.90
57636;DHT22;43465;50.728;4.160;2023-08-30T11:22:46;19.90;99.90
57636;DHT22;43465;50.728;4.160;2023-08-30T11:25:13;19.80;99.90
57636;DHT22;43465;50.728;4.160;2023-08-30T11:27:39;19.70;99.90
57636;DHT22;43465;50.728;4.160;2023-08-30T11:30:06;19.80;99.90
57636;DHT22;43465;50.728;4.160;2023-08-30T11:32:37;19.90;99.90
57636;DHT22;43465;50.728;4.160;2023-08-30T11:35:04;20.00;99.90
57636;DHT22;43465;50.728;4.160;2023-08-30T11:37:30;20.10;99.90
57636;DHT22;43465;50.728;4.160;2023-08-30T11:39:56;20.00;99.90
57636;DHT22;43465;50.728;4.160;2023-08-30T11:42:22;20.00;99.90
57636;DHT22;43465;50.728;4.160;2023-08-30T11:44:49;20.00;99.90
57636;DHT22;43465;50.728;4.160;2023-08-30T11:47:25;20.10;99.90
57636;DHT22;43465;50.728;4.160;2023-08-30T11:49:52;20.20;99.90
57636;DHT22;43465;50.728;4.160;2023-08-30T11:52:19;20.20;99.90
57636;DHT22;43465;50.728;4.160;2023-08-30T11:54:47;20.10;99.90
57636;DHT22;43465;50.728;4.160;2023-08-30T11:57:13;20.10;99.90
57636;DHT22;43465;50.728;4.160;2023-08-30T11:59:39;20.00;99.90
57636;DHT22;43465;50.728;4.160;2023-08-30T12:02:06;20.00;99.90
57636;DHT22;43465;50.728;4.160;2023-08-30T12:04:32;20.10;99.90
57636;DHT22;43465;50.728;4.160;2023-08-30T12:06:58;20.20;99.90
57636;DHT22;43465;50.728;4.160;2023-08-30T12:09:33;20.30;99.90
57636;DHT22;43465;50.728;4.160;2023-08-30T12:12:06;20.40;99.90
57636;DHT22;43465;50.728;4.160;2023-08-30T12:14:35;20.30;99.90
57636;DHT22;43465;50.728;4.160;2023-08-30T12:17:01;20.20;99.90
57636;DHT22;43465;50.728;4.160;2023-08-30T12:19:28;20.20;99.90
57636;DHT22;43465;50.728;4.160;2023-08-30T12:21:54;20.10;99.90
57636;DHT22;43465;50.728;4.160;2023-08-30T12:24:19;20.00;99.90
57636;DHT22;43465;50.728;4.160;2023-08-30T12:26:45;20.00;99.90
57636;DHT22;43465;50.728;4.160;2023-08-30T12:29:10;19.90;99.90
57636;DHT22;43465;50.728;4.160;2023-08-30T12:31:36;20.00;99.90
57636;DHT22;43465;50.728;4.160;2023-08-30T12:34:03;20.00;99.90
57636;DHT22;43465;50.728;4.160;2023-08-30T12:36:29;20.00;99.90
57636;DHT22;43465;50.728;4.160;2023-08-30T12:38:54;20.20;99.90
57636;DHT22;43465;50.728;4.160;2023-08-30T12:41:20;20.40;99.90
57636;DHT22;43465;50.728;4.160;2023-08-30T12:43:49;20.60;99.90
57636;DHT22;43465;50.728;4.160;2023-08-30T12:46:14;20.70;99.90
57636;DHT22;43465;50.728;4.160;2023-08-30T12:48:40;20.70;99.90
57636;DHT22;43465;50.728;4.160;2023-08-30T12:51:06;20.60;99.90
57636;DHT22;43465;50.728;4.160;2023-08-30T12:53:32;20.50;99.90
57636;DHT22;43465;50.728;4.160;2023-08-30T12:55:57;20.30;99.90
57636;DHT22;43465;50.728;4.160;2023-08-30T12:58:23;20.20;99.90
57636;DHT22;43465;50.728;4.160;2023-08-30T13:00:49;20.10;99.90
57636;DHT22;43465;50.728;4.160;2023-08-30T13:03:15;20.00;99.90
57636;DHT22;43465;50.728;4.160;2023-08-30T13:05:41;20.00;99.90
57636;DHT22;43465;50.728;4.160;2023-08-30T13:08:07;20.10;99.90
57636;DHT22;43465;50.728;4.160;2023-08-30T13:10:32;20.20;99.90
57636;DHT22;43465;50.728;4.160;2023-08-30T13:12:58;20.40;99.90
57636;DHT22;43465;50.728;4.160;2023-08-30T13:15:24;20.50;99.90
57636;DHT22;43465;50.728;4.160;2023-08-30T13:17:50;20.50;99.90
57636;DHT22;43465;50.728;4.160;2023-08-30T13:20:16;20.40;99.90
57636;DHT22;43465;50.728;4.160;2023-08-30T13:22:42;20.30;99.90
57636;DHT22;43465;50.728;4.160;2023-08-30T13:25:07;20.20;99.90
57636;DHT22;43465;50.728;4.160;2023-08-30T13:27:34;20.20;99.90
57636;DHT22;43465;50.728;4.160;2023-08-30T13:30:00;20.30;99.90
57636;DHT22;43465;50.728;4.160;2023-08-30T13:32:25;20.40;99.90
57636;DHT22;43465;50.728;4.160;2023-08-30T13:34:52;20.50;99.90
57636;DHT22;43465;50.728;4.160;2023-08-30T13:37:20;20.60;99.90
57636;DHT22;43465;50.728;4.160;2023-08-30T13:39:49;20.70;99.90
57636;DHT22;43465;50.728;4.160;2023-08-30T13:42:14;20.70;99.90
57636;DHT22;43465;50.728;4.160;2023-08-30T13:44:40;20.60;99.90
57636;DHT22;43465;50.728;4.160;2023-08-30T13:47:07;20.50;99.90
57636;DHT22;43465;50.728;4.160;2023-08-30T13:49:33;20.40;99.90
57636;DHT22;43465;50.728;4.160;2023-08-30T13:51:59;20.30;99.90
57636;DHT22;43465;50.728;4.160;2023-08-30T13:54:25;20.10;99.90
57636;DHT22;43465;50.728;4.160;2023-08-30T13:56:51;20.00;99.90
57636;DHT22;43465;50.728;4.160;2023-08-30T13:59:17;19.90;99.90
57636;DHT22;43465;50.728;4.160;2023-08-30T14:01:42;20.00;99.90
57636;DHT22;43465;50.728;4.160;2023-08-30T14:04:08;19.90;99.90
57636;DHT22;43465;50.728;4.160;2023-08-30T14:06:34;20.20;99.90
57636;DHT22;43465;50.728;4.160;2023-08-30T14:09:00;20.40;99.90
57636;DHT22;43465;50.728;4.160;2023-08-30T14:11:26;20.40;99.90
57636;DHT22;43465;50.728;4.160;2023-08-30T14:13:51;20.40;99.90
57636;DHT22;43465;50.728;4.160;2023-08-30T14:16:17;20.20;99.90
57636;DHT22;43465;50.728;4.160;2023-08-30T14:18:43;20.10;99.90
57636;DHT22;43465;50.728;4.160;2023-08-30T14:21:09;19.90;99.90
57636;DHT22;43465;50.728;4.160;2023-08-30T14:23:35;19.90;99.90
57636;DHT22;43465;50.728;4.160;2023-08-30T14:26:05;19.80;99.90
57636;DHT22;43465;50.728;4.160;2023-08-30T14:28:39;19.90;99.90
57636;DHT22;43465;50.728;4.160;2023-08-30T14:31:09;19.80;99.90
57636;DHT22;43465;50.728;4.160;2023-08-30T14:33:35;19.80;99.90
57636;DHT22;43465;50.728;4.160;2023-08-30T14:36:01;19.80;99.90
57636;DHT22;43465;50.728;4.160;2023-08-30T14:38:30;19.70;99.90
57636;DHT22;43465;50.728;4.160;2023-08-30T14:40:56;19.70;99.90
57636;DHT22;43465;50.728;4.160;2023-08-30T14:43:22;19.80;99.90
57636;DHT22;43465;50.728;4.160;2023-08-30T14:45:48;20.00;99.90
57636;DHT22;43465;50.728;4.160;2023-08-30T14:48:13;20.10;99.90
57636;DHT22;43465;50.728;4.160;2023-08-30T14:50:39;20.10;99.90
57636;DHT22;43465;50.728;4.160;2023-08-30T14:53:05;20.20;99.90
57636;DHT22;43465;50.728;4.160;2023-08-30T14:55:31;20.30;99.90
57636;DHT22;43465;50.728;4.160;2023-08-30T14:57:57;20.30;99.90
57636;DHT22;43465;50.728;4.160;2023-08-30T15:00:23;20.10;99.90
57636;DHT22;43465;50.728;4.160;2023-08-30T15:02:49;20.00;99.90
57636;DHT22;43465;50.728;4.160;2023-08-30T15:05:15;19.80;99.90
57636;DHT22;43465;50.728;4.160;2023-08-30T15:07:41;19.70;99.90
57636;DHT22;43465;50.728;4.160;2023-08-30T15:10:06;19.60;99.90
57636;DHT22;43465;50.728;4.160;2023-08-30T15:12:32;19.60;99.90
57636;DHT22;43465;50.728;4.160;2023-08-30T15:14:58;19.60;99.90
57636;DHT22;43465;50.728;4.160;2023-08-30T15:17:24;19.70;99.90
57636;DHT22;43465;50.728;4.160;2023-08-30T15:19:49;19.80;99.90
57636;DHT22;43465;50.728;4.160;2023-08-30T15:22:15;20.00;99.90
57636;DHT22;43465;50.728;4.160;2023-08-30T15:24:40;20.00;99.90
57636;DHT22;43465;50.728;4.160;2023-08-30T15:27:06;20.00;99.90
57636;DHT22;43465;50.728;4.160;2023-08-30T15:29:32;19.90;99.90